sensor_id;sensor_type;location;lat;lon;timestamp;P1;durP1;ratioP1;P2;durP2;ratioP2
43891;SDS011;29555;45.350;5.578;2023-06-10T00:01:00;5.55;;;4.90;;
43891;SDS011;29555;45.350;5.578;2023-06-10T00:03:26;4.95;;;4.40;;
43891;SDS011;29555;45.350;5.578;2023-06-10T00:05:51;6.38;;;5.38;;
43891;SDS011;29555;45.350;5.578;2023-06-10T00:08:17;6.55;;;5.47;;
43891;SDS011;29555;45.350;5.578;2023-06-10T00:10:44;6.93;;;3.88;;
43891;SDS011;29555;45.350;5.578;2023-06-10T00:13:10;5.80;;;4.82;;
43891;SDS011;29555;45.350;5.578;2023-06-10T00:15:36;9.70;;;4.60;;
43891;SDS011;29555;45.350;5.578;2023-06-10T00:18:02;5.68;;;4.95;;
43891;SDS011;29555;45.350;5.578;2023-06-10T00:20:28;8.43;;;5.97;;
43891;SDS011;29555;45.350;5.578;2023-06-10T00:22:55;6.53;;;5.55;;
43891;SDS011;29555;45.350;5.578;2023-06-10T00:25:22;10.73;;;4.88;;
43891;SDS011;29555;45.350;5.578;2023-06-10T00:27:48;7.30;;;5.80;;
43891;SDS011;29555;45.350;5.578;2023-06-10T00:30:13;9.20;;;5.13;;
43891;SDS011;29555;45.350;5.578;2023-06-10T00:32:39;7.53;;;4.20;;
43891;SDS011;29555;45.350;5.578;2023-06-10T00:35:05;8.85;;;4.97;;
43891;SDS011;29555;45.350;5.578;2023-06-10T00:37:31;4.75;;;4.38;;
43891;SDS011;29555;45.350;5.578;2023-06-10T00:39:57;4.22;;;3.83;;
43891;SDS011;29555;45.350;5.578;2023-06-10T00:42:22;12.82;;;3.83;;
43891;SDS011;29555;45.350;5.578;2023-06-10T00:44:49;4.97;;;2.88;;
43891;SDS011;29555;45.350;5.578;2023-06-10T00:47:15;4.80;;;3.50;;
43891;SDS011;29555;45.350;5.578;2023-06-10T00:49:41;5.82;;;4.55;;
43891;SDS011;29555;45.350;5.578;2023-06-10T00:52:06;8.18;;;5.07;;
43891;SDS011;29555;45.350;5.578;2023-06-10T00:54:33;5.50;;;3.78;;
43891;SDS011;29555;45.350;5.578;2023-06-10T00:57:00;4.65;;;3.70;;
43891;SDS011;29555;45.350;5.578;2023-06-10T00:59:26;5.72;;;4.30;;
43891;SDS011;29555;45.350;5.578;2023-06-10T01:01:53;13.85;;;5.47;;
43891;SDS011;29555;45.350;5.578;2023-06-10T01:04:18;11.55;;;5.10;;
43891;SDS011;29555;45.350;5.578;2023-06-10T01:06:50;5.95;;;4.57;;
43891;SDS011;29555;45.350;5.578;2023-06-10T01:09:30;6.28;;;4.43;;
43891;SDS011;29555;45.350;5.578;2023-06-10T01:12:05;8.48;;;5.63;;
43891;SDS011;29555;45.350;5.578;2023-06-10T01:14:40;5.57;;;4.47;;
43891;SDS011;29555;45.350;5.578;2023-06-10T01:17:10;7.22;;;4.75;;
43891;SDS011;29555;45.350;5.578;2023-06-10T01:19:36;4.32;;;4.00;;
43891;SDS011;29555;45.350;5.578;2023-06-10T01:22:02;4.60;;;4.05;;
43891;SDS011;29555;45.350;5.578;2023-06-10T01:24:28;11.63;;;4.18;;
43891;SDS011;29555;45.350;5.578;2023-06-10T01:26:57;4.63;;;3.83;;
43891;SDS011;29555;45.350;5.578;2023-06-10T01:29:28;5.18;;;3.42;;
43891;SDS011;29555;45.350;5.578;2023-06-10T01:32:06;5.82;;;3.85;;
43891;SDS011;29555;45.350;5.578;2023-06-10T01:34:36;6.57;;;4.03;;
43891;SDS011;29555;45.350;5.578;2023-06-10T01:37:05;5.13;;;3.83;;
43891;SDS011;29555;45.350;5.578;2023-06-10T01:39:31;6.78;;;4.35;;
43891;SDS011;29555;45.350;5.578;2023-06-10T01:41:57;6.32;;;4.85;;
43891;SDS011;29555;45.350;5.578;2023-06-10T01:44:23;5.50;;;4.38;;
43891;SDS011;29555;45.350;5.578;2023-06-10T01:46:49;8.90;;;4.85;;
43891;SDS011;29555;45.350;5.578;2023-06-10T01:49:14;6.53;;;4.35;;
43891;SDS011;29555;45.350;5.578;2023-06-10T01:51:40;7.85;;;5.45;;
43891;SDS011;29555;45.350;5.578;2023-06-10T01:54:05;8.90;;;5.30;;
43891;SDS011;29555;45.350;5.578;2023-06-10T01:56:31;8.35;;;5.35;;
43891;SDS011;29555;45.350;5.578;2023-06-10T01:58:57;5.22;;;4.28;;
43891;SDS011;29555;45.350;5.578;2023-06-10T02:01:27;7.47;;;4.13;;
43891;SDS011;29555;45.350;5.578;2023-06-10T02:03:53;7.20;;;5.13;;
43891;SDS011;29555;45.350;5.578;2023-06-10T02:06:18;9.00;;;5.38;;
43891;SDS011;29555;45.350;5.578;2023-06-10T02:08:44;6.63;;;5.13;;
43891;SDS011;29555;45.350;5.578;2023-06-10T02:11:09;5.97;;;4.55;;
43891;SDS011;29555;45.350;5.578;2023-06-10T02:13:35;7.85;;;5.38;;
43891;SDS011;29555;45.350;5.578;2023-06-10T02:16:00;5.57;;;5.03;;
43891;SDS011;29555;45.350;5.578;2023-06-10T02:18:26;7.18;;;5.75;;
43891;SDS011;29555;45.350;5.578;2023-06-10T02:20:53;8.82;;;5.43;;
43891;SDS011;29555;45.350;5.578;2023-06-10T02:23:18;8.57;;;5.75;;
43891;SDS011;29555;45.350;5.578;2023-06-10T02:25:44;15.52;;;6.13;;
43891;SDS011;29555;45.350;5.578;2023-06-10T02:28:09;5.55;;;5.00;;
43891;SDS011;29555;45.350;5.578;2023-06-10T02:30:34;6.82;;;5.35;;
43891;SDS011;29555;45.350;5.578;2023-06-10T02:33:00;7.05;;;5.45;;
43891;SDS011;29555;45.350;5.578;2023-06-10T02:35:26;7.35;;;5.10;;
43891;SDS011;29555;45.350;5.578;2023-06-10T02:37:51;6.63;;;4.22;;
43891;SDS011;29555;45.350;5.578;2023-06-10T02:40:17;14.73;;;5.72;;
43891;SDS011;29555;45.350;5.578;2023-06-10T02:42:42;7.47;;;4.78;;
43891;SDS011;29555;45.350;5.578;2023-06-10T02:45:07;8.10;;;5.63;;
43891;SDS011;29555;45.350;5.578;2023-06-10T02:47:33;20.42;;;5.18;;
43891;SDS011;29555;45.350;5.578;2023-06-10T02:49:58;6.05;;;4.68;;
43891;SDS011;29555;45.350;5.578;2023-06-10T02:52:24;7.00;;;4.13;;
43891;SDS011;29555;45.350;5.578;2023-06-10T02:54:50;7.00;;;4.97;;
43891;SDS011;29555;45.350;5.578;2023-06-10T02:57:15;6.50;;;5.47;;
43891;SDS011;29555;45.350;5.578;2023-06-10T02:59:41;5.90;;;4.38;;
43891;SDS011;29555;45.350;5.578;2023-06-10T03:02:06;7.20;;;4.20;;
43891;SDS011;29555;45.350;5.578;2023-06-10T03:04:32;7.43;;;5.18;;
43891;SDS011;29555;45.350;5.578;2023-06-10T03:06:58;6.82;;;5.03;;
43891;SDS011;29555;45.350;5.578;2023-06-10T03:09:25;11.65;;;5.22;;
43891;SDS011;29555;45.350;5.578;2023-06-10T03:11:50;7.32;;;4.82;;
43891;SDS011;29555;45.350;5.578;2023-06-10T03:14:16;8.05;;;4.82;;
43891;SDS011;29555;45.350;5.578;2023-06-10T03:16:41;9.52;;;4.97;;
43891;SDS011;29555;45.350;5.578;2023-06-10T03:19:07;6.63;;;4.78;;
43891;SDS011;29555;45.350;5.578;2023-06-10T03:21:34;6.45;;;4.93;;
43891;SDS011;29555;45.350;5.578;2023-06-10T03:23:59;7.13;;;4.75;;
43891;SDS011;29555;45.350;5.578;2023-06-10T03:26:26;5.00;;;3.72;;
43891;SDS011;29555;45.350;5.578;2023-06-10T03:28:52;10.20;;;4.68;;
43891;SDS011;29555;45.350;5.578;2023-06-10T03:31:18;4.97;;;3.58;;
43891;SDS011;29555;45.350;5.578;2023-06-10T03:33:43;4.28;;;3.25;;
43891;SDS011;29555;45.350;5.578;2023-06-10T03:36:08;4.28;;;3.80;;
43891;SDS011;29555;45.350;5.578;2023-06-10T03:38:34;4.72;;;3.95;;
43891;SDS011;29555;45.350;5.578;2023-06-10T03:41:00;12.48;;;5.03;;
43891;SDS011;29555;45.350;5.578;2023-06-10T03:43:26;6.32;;;3.88;;
43891;SDS011;29555;45.350;5.578;2023-06-10T03:45:52;5.43;;;4.65;;
43891;SDS011;29555;45.350;5.578;2023-06-10T03:48:17;10.68;;;4.60;;
43891;SDS011;29555;45.350;5.578;2023-06-10T03:50:43;8.80;;;3.67;;
43891;SDS011;29555;45.350;5.578;2023-06-10T03:53:08;5.13;;;4.13;;
43891;SDS011;29555;45.350;5.578;2023-06-10T03:55:34;10.07;;;4.03;;
43891;SDS011;29555;45.350;5.578;2023-06-10T03:57:59;8.48;;;4.50;;
43891;SDS011;29555;45.350;5.578;2023-06-10T04:00:25;6.88;;;4.22;;
43891;SDS011;29555;45.350;5.578;2023-06-10T04:02:50;10.00;;;4.53;;
43891;SDS011;29555;45.350;5.578;2023-06-10T04:05:17;17.73;;;4.63;;
43891;SDS011;29555;45.350;5.578;2023-06-10T04:07:46;5.60;;;3.63;;
43891;SDS011;29555;45.350;5.578;2023-06-10T04:10:13;8.25;;;4.45;;
43891;SDS011;29555;45.350;5.578;2023-06-10T04:12:39;11.95;;;4.97;;
43891;SDS011;29555;45.350;5.578;2023-06-10T04:15:05;4.00;;;3.60;;
43891;SDS011;29555;45.350;5.578;2023-06-10T04:17:32;9.13;;;3.13;;
43891;SDS011;29555;45.350;5.578;2023-06-10T04:19:57;5.30;;;3.83;;
43891;SDS011;29555;45.350;5.578;2023-06-10T04:22:26;3.97;;;3.42;;
43891;SDS011;29555;45.350;5.578;2023-06-10T04:24:51;4.80;;;3.50;;
43891;SDS011;29555;45.350;5.578;2023-06-10T04:27:17;4.72;;;3.97;;
43891;SDS011;29555;45.350;5.578;2023-06-10T04:29:42;9.23;;;4.07;;
43891;SDS011;29555;45.350;5.578;2023-06-10T04:32:08;4.90;;;3.65;;
43891;SDS011;29555;45.350;5.578;2023-06-10T04:34:34;8.38;;;3.92;;
43891;SDS011;29555;45.350;5.578;2023-06-10T04:36:59;5.28;;;4.03;;
43891;SDS011;29555;45.350;5.578;2023-06-10T04:39:25;4.32;;;2.70;;
43891;SDS011;29555;45.350;5.578;2023-06-10T04:41:51;10.73;;;4.25;;
43891;SDS011;29555;45.350;5.578;2023-06-10T04:44:16;5.88;;;4.35;;
43891;SDS011;29555;45.350;5.578;2023-06-10T04:46:41;4.97;;;3.78;;
43891;SDS011;29555;45.350;5.578;2023-06-10T04:49:07;5.13;;;3.78;;
43891;SDS011;29555;45.350;5.578;2023-06-10T04:51:32;4.97;;;4.25;;
43891;SDS011;29555;45.350;5.578;2023-06-10T04:53:59;6.65;;;4.25;;
43891;SDS011;29555;45.350;5.578;2023-06-10T04:56:28;7.20;;;5.80;;
43891;SDS011;29555;45.350;5.578;2023-06-10T04:58:55;8.77;;;4.95;;
43891;SDS011;29555;45.350;5.578;2023-06-10T05:01:24;5.03;;;4.10;;
43891;SDS011;29555;45.350;5.578;2023-06-10T05:03:50;7.10;;;4.43;;
43891;SDS011;29555;45.350;5.578;2023-06-10T05:06:15;5.30;;;4.20;;
43891;SDS011;29555;45.350;5.578;2023-06-10T05:08:40;4.03;;;3.63;;
43891;SDS011;29555;45.350;5.578;2023-06-10T05:11:06;6.25;;;4.05;;
43891;SDS011;29555;45.350;5.578;2023-06-10T05:13:32;6.32;;;4.18;;
43891;SDS011;29555;45.350;5.578;2023-06-10T05:15:57;5.72;;;4.45;;
43891;SDS011;29555;45.350;5.578;2023-06-10T05:18:23;5.13;;;4.63;;
43891;SDS011;29555;45.350;5.578;2023-06-10T05:20:48;8.75;;;4.88;;
43891;SDS011;29555;45.350;5.578;2023-06-10T05:23:14;10.32;;;4.22;;
43891;SDS011;29555;45.350;5.578;2023-06-10T05:25:39;5.07;;;4.10;;
43891;SDS011;29555;45.350;5.578;2023-06-10T05:28:06;5.90;;;3.80;;
43891;SDS011;29555;45.350;5.578;2023-06-10T05:30:34;9.60;;;5.15;;
43891;SDS011;29555;45.350;5.578;2023-06-10T05:33:00;4.43;;;3.05;;
43891;SDS011;29555;45.350;5.578;2023-06-10T05:35:25;3.40;;;3.10;;
43891;SDS011;29555;45.350;5.578;2023-06-10T05:37:51;5.63;;;4.07;;
43891;SDS011;29555;45.350;5.578;2023-06-10T05:40:16;8.32;;;4.60;;
43891;SDS011;29555;45.350;5.578;2023-06-10T05:42:41;5.82;;;4.28;;
43891;SDS011;29555;45.350;5.578;2023-06-10T05:45:07;15.88;;;5.35;;
43891;SDS011;29555;45.350;5.578;2023-06-10T05:47:33;4.25;;;3.63;;
43891;SDS011;29555;45.350;5.578;2023-06-10T05:49:58;7.05;;;3.75;;
43891;SDS011;29555;45.350;5.578;2023-06-10T05:52:23;6.57;;;4.80;;
43891;SDS011;29555;45.350;5.578;2023-06-10T05:54:49;8.75;;;4.03;;
43891;SDS011;29555;45.350;5.578;2023-06-10T05:57:15;7.63;;;5.45;;
43891;SDS011;29555;45.350;5.578;2023-06-10T05:59:40;6.43;;;4.55;;
43891;SDS011;29555;45.350;5.578;2023-06-10T06:02:06;4.50;;;3.30;;
43891;SDS011;29555;45.350;5.578;2023-06-10T06:04:31;11.40;;;4.93;;
43891;SDS011;29555;45.350;5.578;2023-06-10T06:06:57;3.88;;;3.47;;
43891;SDS011;29555;45.350;5.578;2023-06-10T06:09:22;13.55;;;4.50;;
43891;SDS011;29555;45.350;5.578;2023-06-10T06:11:47;5.75;;;4.15;;
43891;SDS011;29555;45.350;5.578;2023-06-10T06:14:13;7.38;;;5.00;;
43891;SDS011;29555;45.350;5.578;2023-06-10T06:16:38;7.80;;;4.22;;
43891;SDS011;29555;45.350;5.578;2023-06-10T06:19:04;12.98;;;5.63;;
43891;SDS011;29555;45.350;5.578;2023-06-10T06:21:29;11.07;;;5.88;;
43891;SDS011;29555;45.350;5.578;2023-06-10T06:23:54;10.98;;;5.13;;
43891;SDS011;29555;45.350;5.578;2023-06-10T06:26:20;6.35;;;4.90;;
43891;SDS011;29555;45.350;5.578;2023-06-10T06:28:45;9.50;;;5.72;;
43891;SDS011;29555;45.350;5.578;2023-06-10T06:31:11;7.05;;;5.00;;
43891;SDS011;29555;45.350;5.578;2023-06-10T06:33:36;8.00;;;5.63;;
43891;SDS011;29555;45.350;5.578;2023-06-10T06:36:05;8.45;;;6.13;;
43891;SDS011;29555;45.350;5.578;2023-06-10T06:38:30;8.98;;;5.22;;
43891;SDS011;29555;45.350;5.578;2023-06-10T06:40:56;13.02;;;6.72;;
43891;SDS011;29555;45.350;5.578;2023-06-10T06:43:21;8.02;;;6.13;;
43891;SDS011;29555;45.350;5.578;2023-06-10T06:45:46;6.80;;;6.03;;
43891;SDS011;29555;45.350;5.578;2023-06-10T06:48:12;7.53;;;6.45;;
43891;SDS011;29555;45.350;5.578;2023-06-10T06:50:37;14.75;;;6.80;;
43891;SDS011;29555;45.350;5.578;2023-06-10T06:53:03;12.52;;;5.72;;
43891;SDS011;29555;45.350;5.578;2023-06-10T06:55:29;8.43;;;6.45;;
43891;SDS011;29555;45.350;5.578;2023-06-10T06:57:54;7.72;;;5.93;;
43891;SDS011;29555;45.350;5.578;2023-06-10T07:00:20;6.78;;;6.07;;
43891;SDS011;29555;45.350;5.578;2023-06-10T07:02:46;8.88;;;4.80;;
43891;SDS011;29555;45.350;5.578;2023-06-10T07:05:11;10.43;;;7.32;;
43891;SDS011;29555;45.350;5.578;2023-06-10T07:07:36;8.10;;;5.60;;
43891;SDS011;29555;45.350;5.578;2023-06-10T07:10:02;8.85;;;6.20;;
43891;SDS011;29555;45.350;5.578;2023-06-10T07:12:27;11.40;;;7.13;;
43891;SDS011;29555;45.350;5.578;2023-06-10T07:14:53;7.57;;;5.38;;
43891;SDS011;29555;45.350;5.578;2023-06-10T07:17:18;10.30;;;6.90;;
43891;SDS011;29555;45.350;5.578;2023-06-10T07:19:44;11.90;;;6.28;;
43891;SDS011;29555;45.350;5.578;2023-06-10T07:22:10;7.00;;;5.70;;
43891;SDS011;29555;45.350;5.578;2023-06-10T07:24:35;6.53;;;4.70;;
43891;SDS011;29555;45.350;5.578;2023-06-10T07:27:01;6.20;;;5.00;;
43891;SDS011;29555;45.350;5.578;2023-06-10T07:29:26;6.25;;;4.97;;
43891;SDS011;29555;45.350;5.578;2023-06-10T07:31:52;9.93;;;4.75;;
43891;SDS011;29555;45.350;5.578;2023-06-10T07:34:18;7.82;;;5.75;;
43891;SDS011;29555;45.350;5.578;2023-06-10T07:36:44;4.82;;;4.28;;
43891;SDS011;29555;45.350;5.578;2023-06-10T07:39:09;8.00;;;5.85;;
43891;SDS011;29555;45.350;5.578;2023-06-10T07:41:35;5.20;;;4.72;;
43891;SDS011;29555;45.350;5.578;2023-06-10T07:44:00;8.02;;;5.15;;
43891;SDS011;29555;45.350;5.578;2023-06-10T07:46:26;6.53;;;4.95;;
43891;SDS011;29555;45.350;5.578;2023-06-10T07:48:52;9.40;;;6.47;;
43891;SDS011;29555;45.350;5.578;2023-06-10T07:51:18;5.65;;;4.88;;
43891;SDS011;29555;45.350;5.578;2023-06-10T07:53:43;8.63;;;5.35;;
43891;SDS011;29555;45.350;5.578;2023-06-10T07:56:09;8.73;;;5.60;;
43891;SDS011;29555;45.350;5.578;2023-06-10T07:58:34;9.75;;;5.25;;
43891;SDS011;29555;45.350;5.578;2023-06-10T08:00:59;9.68;;;5.90;;
43891;SDS011;29555;45.350;5.578;2023-06-10T08:03:25;7.68;;;6.32;;
43891;SDS011;29555;45.350;5.578;2023-06-10T08:05:50;9.82;;;6.72;;
43891;SDS011;29555;45.350;5.578;2023-06-10T08:08:15;6.93;;;6.22;;
43891;SDS011;29555;45.350;5.578;2023-06-10T08:10:41;8.30;;;6.15;;
43891;SDS011;29555;45.350;5.578;2023-06-10T08:13:07;8.48;;;5.63;;
43891;SDS011;29555;45.350;5.578;2023-06-10T08:15:33;8.73;;;5.68;;
43891;SDS011;29555;45.350;5.578;2023-06-10T08:17:58;8.25;;;5.35;;
43891;SDS011;29555;45.350;5.578;2023-06-10T08:20:24;8.85;;;4.60;;
43891;SDS011;29555;45.350;5.578;2023-06-10T08:22:49;8.65;;;5.93;;
43891;SDS011;29555;45.350;5.578;2023-06-10T08:25:15;9.27;;;5.35;;
43891;SDS011;29555;45.350;5.578;2023-06-10T08:27:40;8.07;;;4.30;;
43891;SDS011;29555;45.350;5.578;2023-06-10T08:30:06;7.28;;;5.75;;
43891;SDS011;29555;45.350;5.578;2023-06-10T08:32:31;6.85;;;4.50;;
43891;SDS011;29555;45.350;5.578;2023-06-10T08:34:57;4.72;;;3.60;;
43891;SDS011;29555;45.350;5.578;2023-06-10T08:37:22;9.00;;;3.22;;
43891;SDS011;29555;45.350;5.578;2023-06-10T08:39:48;3.80;;;3.47;;
43891;SDS011;29555;45.350;5.578;2023-06-10T08:44:44;10.50;;;4.18;;
43891;SDS011;29555;45.350;5.578;2023-06-10T08:47:15;4.85;;;4.15;;
43891;SDS011;29555;45.350;5.578;2023-06-10T08:49:45;4.03;;;3.55;;
43891;SDS011;29555;45.350;5.578;2023-06-10T08:52:18;4.57;;;3.55;;
43891;SDS011;29555;45.350;5.578;2023-06-10T08:54:58;6.65;;;4.50;;
43891;SDS011;29555;45.350;5.578;2023-06-10T08:57:25;6.05;;;4.22;;
43891;SDS011;29555;45.350;5.578;2023-06-10T08:59:52;8.02;;;3.58;;
43891;SDS011;29555;45.350;5.578;2023-06-10T09:02:20;9.68;;;3.78;;
43891;SDS011;29555;45.350;5.578;2023-06-10T09:04:47;4.53;;;2.92;;
43891;SDS011;29555;45.350;5.578;2023-06-10T09:07:15;4.65;;;3.42;;
43891;SDS011;29555;45.350;5.578;2023-06-10T09:09:41;6.25;;;2.85;;
43891;SDS011;29555;45.350;5.578;2023-06-10T09:12:09;3.70;;;3.05;;
43891;SDS011;29555;45.350;5.578;2023-06-10T09:14:35;3.97;;;2.63;;
43891;SDS011;29555;45.350;5.578;2023-06-10T09:17:01;4.82;;;2.70;;
43891;SDS011;29555;45.350;5.578;2023-06-10T09:19:27;8.05;;;3.38;;
43891;SDS011;29555;45.350;5.578;2023-06-10T09:21:54;7.00;;;3.17;;
43891;SDS011;29555;45.350;5.578;2023-06-10T09:24:21;6.95;;;3.60;;
43891;SDS011;29555;45.350;5.578;2023-06-10T09:26:47;2.65;;;2.45;;
43891;SDS011;29555;45.350;5.578;2023-06-10T09:29:12;3.78;;;2.67;;
43891;SDS011;29555;45.350;5.578;2023-06-10T09:31:38;5.32;;;4.40;;
43891;SDS011;29555;45.350;5.578;2023-06-10T09:34:08;4.05;;;2.20;;
43891;SDS011;29555;45.350;5.578;2023-06-10T09:36:38;3.05;;;2.40;;
43891;SDS011;29555;45.350;5.578;2023-06-10T09:39:04;5.15;;;2.28;;
43891;SDS011;29555;45.350;5.578;2023-06-10T09:44:00;2.65;;;2.33;;
43891;SDS011;29555;45.350;5.578;2023-06-10T09:46:30;8.73;;;3.22;;
43891;SDS011;29555;45.350;5.578;2023-06-10T09:48:57;3.92;;;2.85;;
43891;SDS011;29555;45.350;5.578;2023-06-10T09:51:22;11.77;;;3.25;;
43891;SDS011;29555;45.350;5.578;2023-06-10T09:53:51;4.80;;;2.55;;
43891;SDS011;29555;45.350;5.578;2023-06-10T09:56:17;3.03;;;1.92;;
43891;SDS011;29555;45.350;5.578;2023-06-10T09:58:44;2.80;;;1.90;;
43891;SDS011;29555;45.350;5.578;2023-06-10T10:01:11;4.63;;;2.53;;
43891;SDS011;29555;45.350;5.578;2023-06-10T10:03:50;4.55;;;2.40;;
43891;SDS011;29555;45.350;5.578;2023-06-10T10:06:16;3.22;;;2.95;;
43891;SDS011;29555;45.350;5.578;2023-06-10T10:08:42;3.75;;;2.05;;
43891;SDS011;29555;45.350;5.578;2023-06-10T10:11:08;2.75;;;2.20;;
43891;SDS011;29555;45.350;5.578;2023-06-10T10:13:34;1.95;;;1.85;;
43891;SDS011;29555;45.350;5.578;2023-06-10T10:16:09;3.38;;;2.00;;
43891;SDS011;29555;45.350;5.578;2023-06-10T10:18:39;2.15;;;1.92;;
43891;SDS011;29555;45.350;5.578;2023-06-10T10:21:27;3.38;;;2.83;;
43891;SDS011;29555;45.350;5.578;2023-06-10T10:24:01;2.03;;;1.73;;
43891;SDS011;29555;45.350;5.578;2023-06-10T10:26:31;7.00;;;2.13;;
43891;SDS011;29555;45.350;5.578;2023-06-10T10:31:43;2.42;;;2.22;;
43891;SDS011;29555;45.350;5.578;2023-06-10T10:34:12;3.72;;;3.00;;
43891;SDS011;29555;45.350;5.578;2023-06-10T10:36:41;2.33;;;2.17;;
43891;SDS011;29555;45.350;5.578;2023-06-10T10:39:07;1.45;;;1.13;;
43891;SDS011;29555;45.350;5.578;2023-06-10T10:41:32;2.60;;;2.10;;
43891;SDS011;29555;45.350;5.578;2023-06-10T10:44:00;3.83;;;2.05;;
43891;SDS011;29555;45.350;5.578;2023-06-10T10:46:26;2.05;;;1.63;;
43891;SDS011;29555;45.350;5.578;2023-06-10T10:48:52;3.78;;;1.77;;
43891;SDS011;29555;45.350;5.578;2023-06-10T10:51:19;2.25;;;2.03;;
43891;SDS011;29555;45.350;5.578;2023-06-10T10:53:47;4.45;;;1.92;;
43891;SDS011;29555;45.350;5.578;2023-06-10T10:56:37;7.15;;;2.30;;
43891;SDS011;29555;45.350;5.578;2023-06-10T10:59:06;1.77;;;1.67;;
43891;SDS011;29555;45.350;5.578;2023-06-10T11:01:39;5.57;;;2.13;;
43891;SDS011;29555;45.350;5.578;2023-06-10T11:04:06;9.38;;;2.47;;
43891;SDS011;29555;45.350;5.578;2023-06-10T11:06:33;4.75;;;1.90;;
43891;SDS011;29555;45.350;5.578;2023-06-10T11:08:59;2.65;;;2.05;;
43891;SDS011;29555;45.350;5.578;2023-06-10T11:11:26;5.95;;;2.17;;
43891;SDS011;29555;45.350;5.578;2023-06-10T11:16:29;1.42;;;1.33;;
43891;SDS011;29555;45.350;5.578;2023-06-10T11:18:55;8.38;;;2.53;;
43891;SDS011;29555;45.350;5.578;2023-06-10T11:21:21;1.40;;;1.27;;
43891;SDS011;29555;45.350;5.578;2023-06-10T11:23:48;2.60;;;2.00;;
43891;SDS011;29555;45.350;5.578;2023-06-10T11:26:29;3.50;;;2.15;;
43891;SDS011;29555;45.350;5.578;2023-06-10T11:31:31;1.75;;;1.65;;
43891;SDS011;29555;45.350;5.578;2023-06-10T11:34:01;8.20;;;1.98;;
43891;SDS011;29555;45.350;5.578;2023-06-10T11:36:28;6.80;;;2.55;;
43891;SDS011;29555;45.350;5.578;2023-06-10T11:38:57;6.95;;;2.50;;
43891;SDS011;29555;45.350;5.578;2023-06-10T11:41:24;2.58;;;2.25;;
43891;SDS011;29555;45.350;5.578;2023-06-10T11:43:51;2.20;;;2.00;;
43891;SDS011;29555;45.350;5.578;2023-06-10T11:46:17;5.07;;;3.58;;
43891;SDS011;29555;45.350;5.578;2023-06-10T11:48:53;4.10;;;2.10;;
43891;SDS011;29555;45.350;5.578;2023-06-10T11:51:26;1.73;;;1.63;;
43891;SDS011;29555;45.350;5.578;2023-06-10T11:53:53;2.88;;;2.22;;
43891;SDS011;29555;45.350;5.578;2023-06-10T11:56:19;2.95;;;1.45;;
43891;SDS011;29555;45.350;5.578;2023-06-10T11:59:01;3.50;;;2.70;;
43891;SDS011;29555;45.350;5.578;2023-06-10T12:01:32;4.50;;;1.73;;
43891;SDS011;29555;45.350;5.578;2023-06-10T12:06:38;2.17;;;2.05;;
43891;SDS011;29555;45.350;5.578;2023-06-10T12:09:05;2.75;;;2.35;;
43891;SDS011;29555;45.350;5.578;2023-06-10T12:11:31;2.80;;;1.50;;
43891;SDS011;29555;45.350;5.578;2023-06-10T12:13:56;1.58;;;1.48;;
43891;SDS011;29555;45.350;5.578;2023-06-10T12:16:22;1.37;;;1.20;;
43891;SDS011;29555;45.350;5.578;2023-06-10T12:18:47;1.73;;;1.60;;
43891;SDS011;29555;45.350;5.578;2023-06-10T12:21:20;7.35;;;1.85;;
43891;SDS011;29555;45.350;5.578;2023-06-10T12:24:05;1.67;;;1.30;;
43891;SDS011;29555;45.350;5.578;2023-06-10T12:26:38;2.10;;;1.95;;
43891;SDS011;29555;45.350;5.578;2023-06-10T12:29:15;1.52;;;1.45;;
43891;SDS011;29555;45.350;5.578;2023-06-10T12:34:31;1.58;;;1.42;;
43891;SDS011;29555;45.350;5.578;2023-06-10T12:36:57;1.50;;;1.40;;
43891;SDS011;29555;45.350;5.578;2023-06-10T12:39:22;1.23;;;1.20;;
43891;SDS011;29555;45.350;5.578;2023-06-10T12:41:48;1.17;;;1.15;;
43891;SDS011;29555;45.350;5.578;2023-06-10T12:44:14;4.07;;;1.83;;
43891;SDS011;29555;45.350;5.578;2023-06-10T12:46:40;4.65;;;1.75;;
43891;SDS011;29555;45.350;5.578;2023-06-10T12:49:05;1.67;;;1.20;;
43891;SDS011;29555;45.350;5.578;2023-06-10T12:51:31;2.67;;;1.27;;
43891;SDS011;29555;45.350;5.578;2023-06-10T12:53:56;1.73;;;1.63;;
43891;SDS011;29555;45.350;5.578;2023-06-10T12:56:22;2.25;;;1.45;;
43891;SDS011;29555;45.350;5.578;2023-06-10T12:58:47;2.30;;;1.60;;
43891;SDS011;29555;45.350;5.578;2023-06-10T13:01:13;2.75;;;1.80;;
43891;SDS011;29555;45.350;5.578;2023-06-10T13:03:38;7.90;;;1.60;;
43891;SDS011;29555;45.350;5.578;2023-06-10T13:06:05;1.27;;;1.08;;
43891;SDS011;29555;45.350;5.578;2023-06-10T13:08:31;1.60;;;1.50;;
43891;SDS011;29555;45.350;5.578;2023-06-10T13:10:57;1.95;;;1.23;;
43891;SDS011;29555;45.350;5.578;2023-06-10T13:13:23;1.90;;;1.08;;
43891;SDS011;29555;45.350;5.578;2023-06-10T13:15:48;3.20;;;1.45;;
43891;SDS011;29555;45.350;5.578;2023-06-10T13:18:15;0.90;;;0.90;;
43891;SDS011;29555;45.350;5.578;2023-06-10T13:20:43;1.65;;;0.88;;
43891;SDS011;29555;45.350;5.578;2023-06-10T13:23:08;1.17;;;1.02;;
43891;SDS011;29555;45.350;5.578;2023-06-10T13:25:34;1.55;;;1.45;;
43891;SDS011;29555;45.350;5.578;2023-06-10T13:27:59;2.28;;;1.05;;
43891;SDS011;29555;45.350;5.578;2023-06-10T13:30:25;1.10;;;0.80;;
43891;SDS011;29555;45.350;5.578;2023-06-10T13:32:51;3.03;;;1.27;;
43891;SDS011;29555;45.350;5.578;2023-06-10T13:35:16;0.70;;;0.57;;
43891;SDS011;29555;45.350;5.578;2023-06-10T13:37:42;3.35;;;1.23;;
43891;SDS011;29555;45.350;5.578;2023-06-10T13:40:07;1.13;;;0.80;;
43891;SDS011;29555;45.350;5.578;2023-06-10T13:42:34;1.25;;;1.25;;
43891;SDS011;29555;45.350;5.578;2023-06-10T13:45:01;1.30;;;1.25;;
43891;SDS011;29555;45.350;5.578;2023-06-10T13:47:26;0.70;;;0.70;;
43891;SDS011;29555;45.350;5.578;2023-06-10T13:49:52;7.23;;;1.00;;
43891;SDS011;29555;45.350;5.578;2023-06-10T13:52:17;2.85;;;0.60;;
43891;SDS011;29555;45.350;5.578;2023-06-10T13:54:43;0.88;;;0.88;;
43891;SDS011;29555;45.350;5.578;2023-06-10T13:57:08;2.72;;;1.00;;
43891;SDS011;29555;45.350;5.578;2023-06-10T13:59:35;0.77;;;0.75;;
43891;SDS011;29555;45.350;5.578;2023-06-10T14:02:00;1.13;;;1.02;;
43891;SDS011;29555;45.350;5.578;2023-06-10T14:04:26;0.60;;;0.60;;
43891;SDS011;29555;45.350;5.578;2023-06-10T14:06:51;0.63;;;0.63;;
43891;SDS011;29555;45.350;5.578;2023-06-10T14:09:17;3.20;;;1.67;;
43891;SDS011;29555;45.350;5.578;2023-06-10T14:11:42;0.95;;;0.95;;
43891;SDS011;29555;45.350;5.578;2023-06-10T14:14:08;1.02;;;0.73;;
43891;SDS011;29555;45.350;5.578;2023-06-10T14:16:34;0.98;;;0.93;;
43891;SDS011;29555;45.350;5.578;2023-06-10T14:18:59;1.45;;;1.02;;
43891;SDS011;29555;45.350;5.578;2023-06-10T14:21:25;0.85;;;0.85;;
43891;SDS011;29555;45.350;5.578;2023-06-10T14:23:51;1.52;;;0.80;;
43891;SDS011;29555;45.350;5.578;2023-06-10T14:26:18;2.17;;;1.10;;
43891;SDS011;29555;45.350;5.578;2023-06-10T14:28:44;1.20;;;0.75;;
43891;SDS011;29555;45.350;5.578;2023-06-10T14:31:09;1.40;;;1.30;;
43891;SDS011;29555;45.350;5.578;2023-06-10T14:33:34;3.03;;;1.23;;
43891;SDS011;29555;45.350;5.578;2023-06-10T14:36:00;2.10;;;1.85;;
43891;SDS011;29555;45.350;5.578;2023-06-10T14:38:26;0.60;;;0.60;;
43891;SDS011;29555;45.350;5.578;2023-06-10T14:40:51;4.90;;;0.93;;
43891;SDS011;29555;45.350;5.578;2023-06-10T14:43:17;1.35;;;1.00;;
43891;SDS011;29555;45.350;5.578;2023-06-10T14:45:42;0.50;;;0.50;;
43891;SDS011;29555;45.350;5.578;2023-06-10T14:48:08;0.68;;;0.68;;
43891;SDS011;29555;45.350;5.578;2023-06-10T14:50:34;2.05;;;0.88;;
43891;SDS011;29555;45.350;5.578;2023-06-10T14:53:00;0.52;;;0.52;;
43891;SDS011;29555;45.350;5.578;2023-06-10T14:55:26;5.10;;;1.65;;
43891;SDS011;29555;45.350;5.578;2023-06-10T14:57:51;0.82;;;0.82;;
43891;SDS011;29555;45.350;5.578;2023-06-10T15:00:17;2.15;;;1.42;;